EDT,Max TemperatureF,Mean TemperatureF,Min TemperatureF,Max Dew PointF,MeanDew PointF,Min DewpointF,Max Humidity, Mean Humidity, Min Humidity, Max Sea Level PressureIn, Mean Sea Level PressureIn, Min Sea Level PressureIn, Max VisibilityMiles, Mean VisibilityMiles, Min VisibilityMiles, Max Wind SpeedMPH, Mean Wind SpeedMPH, Max Gust SpeedMPH,PrecipitationIn, CloudCover, Events, WindDirDegrees
2012-9-1,82,75,68,68,66,63,94,77,54,30.27,30.22,30.17,10,10,10,14,1,,0.00,2,Rain-Thunderstorm,263
2012-9-2,86,76,66,70,66,63,94,80,45,30.17,30.11,30.03,10,8,0,8,1,,0.00,5,Fog-Thunderstorm,86
2012-9-3,80,74,68,68,67,64,94,80,61,30.11,30.07,30.05,10,9,4,13,3,17,0.00,5,,110
2012-9-4,84,76,68,68,65,64,94,72,51,30.08,30.02,29.96,10,10,5,15,3,21,0.00,6,Rain-Thunderstorm,194
2012-9-5,86,78,69,70,68,64,94,82,48,30.00,29.96,29.92,10,9,3,10,1,,0.00,7,Rain-Thunderstorm,229
2012-9-6,84,76,68,68,65,61,94,75,45,30.05,30.01,29.95,10,8,0,6,1,,0.00,5,Fog-Rain-Thunderstorm,54
2012-9-7,87,74,60,68,61,46,100,73,25,30.10,30.03,29.92,10,6,0,7,1,,0.00,4,Fog,192
2012-9-8,75,63,51,66,60,48,100,82,65,29.98,29.87,29.80,10,8,0,25,3,37,0.00,3,Fog-Rain,262
2012-9-9,71,60,48,55,48,41,100,74,35,30.10,30.01,29.96,10,7,0,14,2,20,0.00,5,Fog,339
2012-9-10,71,58,46,54,44,34,100,67,27,30.26,30.18,30.09,10,8,0,14,2,21,0.00,3,Fog,7
2012-9-11,77,59,41,52,45,39,100,68,27,30.37,30.32,30.26,10,10,5,8,2,,0.00,0,,24
2012-9-12,78,63,48,55,51,46,100,70,36,30.42,30.37,30.33,10,10,5,6,2,,0.00,0,,99
2012-9-13,78,63,48,55,49,43,100,68,28,30.44,30.38,30.32,10,7,0,7,1,,0.00,2,Fog,55
2012-9-14,80,65,50,55,50,46,94,67,30,30.36,30.29,30.23,10,10,7,10,2,,0.00,1,,356
2012-9-15,77,64,51,59,49,37,94,63,24,30.29,30.24,30.20,10,10,7,9,1,16,0.00,3,,317
2012-9-16,73,62,51,55,51,45,94,72,47,30.22,30.17,30.11,10,10,7,7,2,,0.00,5,,33
2012-9-17,71,63,55,63,58,54,94,88,64,30.15,30.08,29.95,10,8,4,7,2,,0.00,7,Rain,67
2012-9-18,68,64,59,64,61,52,94,89,77,29.96,29.80,29.68,10,8,2,8,3,18,0.44,8,Rain,233
2012-9-19,66,56,46,50,42,32,94,63,28,30.19,30.11,29.97,10,10,1,10,2,16,0.09,1,,331
2012-9-20,73,60,46,54,50,45,94,72,41,30.19,30.14,30.08,10,10,10,12,2,17,0.01,4,,243
2012-9-21,77,64,51,59,52,48,100,72,36,30.12,30.08,30.00,10,7,0,12,2,,0.01,4,Fog,217
2012-9-22,77,66,55,55,51,39,94,60,34,30.09,29.99,29.94,10,10,7,16,5,26,0.00,3,,260
2012-9-23,64,50,37,37,35,30,93,57,28,30.23,30.17,30.09,10,10,10,12,4,18,0.00,0,,302
2012-9-24,64,48,33,41,35,28,100,66,26,30.29,30.23,30.17,10,9,0,8,1,,0.00,0,Fog,212
2012-9-25,66,50,35,54,44,34,100,83,40,30.28,30.21,30.14,10,8,0,14,2,20,0.00,2,Fog-Rain-Thunderstorm,332
2012-9-26,78,62,46,61,54,46,100,79,47,30.26,30.21,30.18,10,7,0,10,2,18,0.00,3,Fog,225
2012-9-27,78,64,51,63,56,50,100,79,44,30.26,30.22,30.18,10,6,0,10,2,,0.00,5,Fog-Rain,255
2012-9-28,66,62,59,63,60,57,100,93,83,30.18,30.12,30.06,10,5,0,8,1,,0.00,8,Fog-Rain-Thunderstorm,237
2012-9-29,69,58,46,59,51,43,100,76,38,30.08,30.02,29.96,10,8,0,9,1,17,0.01,4,Fog-Rain,341
2012-9-30,69,55,41,50,44,37,100,75,31,30.01,29.94,29.88,10,8,0,9,1,,0.00,4,Fog,246